Airfield :







YOU CAN JOIN US ON...

 
LOGIN :

Register | Disclaimer

   EN    FR    IT 

 









Legend :    VFR   Marginal VFR   IFR   Intensive IFR   Very Intensive IFR
Visi :
Ceiling :
>= 8 km
>= 3000ft
5 to 8 km
1000 to 3000 ft
1500m to 5 km
500 to 1000 ft
800 to 1500m
200 to 500 ft
< 800m
< 200 ft
Symbols :   Thunderstorms  Fog  Heavy snow  Heavy precipitations  Wind > 20 kt







- Airport Elevation : 160 ft
- IATA code : YYG


CYYG - Charlottetown

CURRENT METAR :
  • 220600Z 36015G24KT 8SM -RA OVC005 04/04 A2957 RMK ST8 SLP016

EXPIRED METARs :
  • 220500Z 36017G29KT 8SM -RA OVC005 04/04 A2954 RMK ST8 SLP006
  • 220400Z 01020G30KT 8SM -RA FEW003 BKN006 OVC012 04/04 A2951 RMK SF2SC5SC1 SLP995
  • 220348Z 36022G35KT 8SM -RA FEW003 BKN007 OVC012 04/04 A2950 RMK SF2SC5SC1 SLP992
  • 220327Z 36019G28KT 5SM RA SCT003 OVC006 04/04 A2949 RMK SF3SC5 SLP989

TAF TAF CYYG
Valid from the 22 at 06:00 until the 22 at 18:00 UTC


220538Z 2206/2218 36020G35KT 6SM -RA BR SCT003 OVC007
TEMPO 2206/2212 3SM -DZ BR BKN003 OVC007
FM221200 36020G30KT P6SM OVC012
TEMPO 2212/2218 4SM -RA -DZ BR OVC007 RMK NXT FCST BY 221200Z
CZQM FIR / North America



MET'MAP, your aeronautical weather chart ! - Copyright ORBIFLY December 2007 - Disclaimer

ORBIFLY MET'MAP TEAM :

Programming & Development : Alexandra Zaïnal
Concept & Development : Baudouin d'Aumeries
Co-Development & Prog : Marc-Olivier Méhu
Technical & hardware support : Manuel Goepfert

Contact : metmap@orbifly.com




SOURCES & CREDITS :

   NOAA